sensor_id;sensor_type;location;lat;lon;timestamp;P1;durP1;ratioP1;P2;durP2;ratioP2
20397;SDS011;10358;49.590;11.030;2024-03-23T00:53:44;14.70;;;6.90;;
20397;SDS011;10358;49.590;11.030;2024-03-23T00:56:10;11.27;;;6.63;;
20397;SDS011;10358;49.590;11.030;2024-03-23T00:58:36;13.07;;;6.87;;
20397;SDS011;10358;49.590;11.030;2024-03-23T01:01:01;14.47;;;7.77;;
20397;SDS011;10358;49.590;11.030;2024-03-23T01:03:28;12.87;;;7.77;;
20397;SDS011;10358;49.590;11.030;2024-03-23T01:05:58;12.83;;;7.53;;
20397;SDS011;10358;49.590;11.030;2024-03-23T01:08:25;9.80;;;6.83;;
20397;SDS011;10358;49.590;11.030;2024-03-23T01:10:57;12.30;;;6.87;;
20397;SDS011;10358;49.590;11.030;2024-03-23T01:13:24;11.03;;;6.40;;
20397;SDS011;10358;49.590;11.030;2024-03-23T01:15:50;11.77;;;6.40;;
20397;SDS011;10358;49.590;11.030;2024-03-23T01:18:20;10.27;;;6.63;;
20397;SDS011;10358;49.590;11.030;2024-03-23T01:20:46;14.53;;;7.57;;
20397;SDS011;10358;49.590;11.030;2024-03-23T01:23:12;15.20;;;8.43;;
20397;SDS011;10358;49.590;11.030;2024-03-23T01:25:38;12.20;;;8.07;;
20397;SDS011;10358;49.590;11.030;2024-03-23T01:28:03;13.70;;;7.07;;
20397;SDS011;10358;49.590;11.030;2024-03-23T01:30:31;11.33;;;7.73;;
20397;SDS011;10358;49.590;11.030;2024-03-23T01:32:57;13.57;;;7.73;;
20397;SDS011;10358;49.590;11.030;2024-03-23T01:35:24;11.47;;;7.27;;
20397;SDS011;10358;49.590;11.030;2024-03-23T01:37:49;14.70;;;7.27;;
20397;SDS011;10358;49.590;11.030;2024-03-23T01:40:16;13.23;;;7.43;;
20397;SDS011;10358;49.590;11.030;2024-03-23T01:42:42;10.97;;;6.63;;
20397;SDS011;10358;49.590;11.030;2024-03-23T01:45:08;11.13;;;6.07;;
20397;SDS011;10358;49.590;11.030;2024-03-23T01:47:35;10.80;;;5.90;;
20397;SDS011;10358;49.590;11.030;2024-03-23T01:50:00;8.10;;;5.53;;
20397;SDS011;10358;49.590;11.030;2024-03-23T01:52:27;9.60;;;5.90;;
20397;SDS011;10358;49.590;11.030;2024-03-23T01:54:53;11.73;;;5.90;;
20397;SDS011;10358;49.590;11.030;2024-03-23T01:57:19;12.00;;;6.30;;
20397;SDS011;10358;49.590;11.030;2024-03-23T01:59:48;10.97;;;7.10;;
20397;SDS011;10358;49.590;11.030;2024-03-23T02:02:14;10.07;;;6.43;;
20397;SDS011;10358;49.590;11.030;2024-03-23T02:04:42;11.40;;;7.20;;
20397;SDS011;10358;49.590;11.030;2024-03-23T02:07:08;11.47;;;7.13;;
20397;SDS011;10358;49.590;11.030;2024-03-23T02:09:33;12.43;;;7.50;;
20397;SDS011;10358;49.590;11.030;2024-03-23T02:12:01;12.07;;;6.73;;
20397;SDS011;10358;49.590;11.030;2024-03-23T02:14:27;13.97;;;7.30;;
20397;SDS011;10358;49.590;11.030;2024-03-23T02:16:53;13.63;;;7.80;;
20397;SDS011;10358;49.590;11.030;2024-03-23T02:19:18;14.30;;;7.70;;
20397;SDS011;10358;49.590;11.030;2024-03-23T02:21:44;11.07;;;7.60;;
20397;SDS011;10358;49.590;11.030;2024-03-23T02:24:11;14.67;;;8.17;;
20397;SDS011;10358;49.590;11.030;2024-03-23T02:26:37;16.73;;;7.60;;
20397;SDS011;10358;49.590;11.030;2024-03-23T02:29:02;15.67;;;8.73;;
20397;SDS011;10358;49.590;11.030;2024-03-23T02:31:28;14.30;;;8.33;;
20397;SDS011;10358;49.590;11.030;2024-03-23T02:33:53;17.07;;;8.60;;
20397;SDS011;10358;49.590;11.030;2024-03-23T02:36:19;13.53;;;7.67;;
20397;SDS011;10358;49.590;11.030;2024-03-23T02:38:46;15.33;;;8.47;;
20397;SDS011;10358;49.590;11.030;2024-03-23T02:41:11;12.87;;;8.27;;
20397;SDS011;10358;49.590;11.030;2024-03-23T02:43:37;13.40;;;8.77;;
20397;SDS011;10358;49.590;11.030;2024-03-23T02:46:04;19.37;;;8.43;;
20397;SDS011;10358;49.590;11.030;2024-03-23T02:48:31;14.67;;;8.20;;
20397;SDS011;10358;49.590;11.030;2024-03-23T02:50:57;12.57;;;8.07;;
20397;SDS011;10358;49.590;11.030;2024-03-23T02:53:22;13.97;;;8.53;;
20397;SDS011;10358;49.590;11.030;2024-03-23T02:55:49;13.10;;;7.57;;
20397;SDS011;10358;49.590;11.030;2024-03-23T02:58:15;12.63;;;7.93;;
20397;SDS011;10358;49.590;11.030;2024-03-23T03:00:40;15.03;;;7.93;;
20397;SDS011;10358;49.590;11.030;2024-03-23T03:03:06;12.17;;;7.77;;
20397;SDS011;10358;49.590;11.030;2024-03-23T03:05:32;13.80;;;7.93;;
20397;SDS011;10358;49.590;11.030;2024-03-23T03:07:57;13.07;;;8.30;;
20397;SDS011;10358;49.590;11.030;2024-03-23T03:10:23;16.07;;;8.63;;
20397;SDS011;10358;49.590;11.030;2024-03-23T03:12:49;13.63;;;7.60;;
20397;SDS011;10358;49.590;11.030;2024-03-23T03:15:14;14.17;;;7.77;;
20397;SDS011;10358;49.590;11.030;2024-03-23T03:17:40;12.73;;;7.70;;
20397;SDS011;10358;49.590;11.030;2024-03-23T03:20:05;16.23;;;8.20;;
20397;SDS011;10358;49.590;11.030;2024-03-23T03:22:31;10.83;;;7.30;;
20397;SDS011;10358;49.590;11.030;2024-03-23T03:24:58;13.33;;;7.80;;
20397;SDS011;10358;49.590;11.030;2024-03-23T03:27:25;11.17;;;6.70;;
20397;SDS011;10358;49.590;11.030;2024-03-23T03:29:50;11.60;;;7.13;;
20397;SDS011;10358;49.590;11.030;2024-03-23T03:32:16;13.40;;;8.07;;
20397;SDS011;10358;49.590;11.030;2024-03-23T03:34:41;10.47;;;7.07;;
20397;SDS011;10358;49.590;11.030;2024-03-23T03:37:07;16.20;;;7.70;;
20397;SDS011;10358;49.590;11.030;2024-03-23T03:39:34;12.43;;;7.10;;
20397;SDS011;10358;49.590;11.030;2024-03-23T03:41:59;13.93;;;7.90;;
20397;SDS011;10358;49.590;11.030;2024-03-23T03:44:26;11.53;;;7.23;;
20397;SDS011;10358;49.590;11.030;2024-03-23T03:46:52;10.80;;;7.00;;
20397;SDS011;10358;49.590;11.030;2024-03-23T03:49:17;13.10;;;7.07;;
20397;SDS011;10358;49.590;11.030;2024-03-23T03:51:43;14.93;;;7.50;;
20397;SDS011;10358;49.590;11.030;2024-03-23T03:54:10;9.73;;;6.83;;
20397;SDS011;10358;49.590;11.030;2024-03-23T03:56:36;11.10;;;6.97;;
20397;SDS011;10358;49.590;11.030;2024-03-23T03:59:01;11.93;;;7.20;;
20397;SDS011;10358;49.590;11.030;2024-03-23T04:01:27;10.83;;;6.87;;
20397;SDS011;10358;49.590;11.030;2024-03-23T04:03:52;11.53;;;6.83;;
20397;SDS011;10358;49.590;11.030;2024-03-23T04:06:18;10.87;;;6.83;;
20397;SDS011;10358;49.590;11.030;2024-03-23T04:08:44;13.03;;;6.77;;
20397;SDS011;10358;49.590;11.030;2024-03-23T04:11:10;15.07;;;6.70;;
20397;SDS011;10358;49.590;11.030;2024-03-23T04:13:36;13.33;;;7.20;;
20397;SDS011;10358;49.590;11.030;2024-03-23T04:16:01;12.53;;;6.80;;
20397;SDS011;10358;49.590;11.030;2024-03-23T04:18:27;9.57;;;6.80;;
20397;SDS011;10358;49.590;11.030;2024-03-23T04:20:52;12.20;;;7.13;;
20397;SDS011;10358;49.590;11.030;2024-03-23T04:23:18;12.07;;;7.17;;
20397;SDS011;10358;49.590;11.030;2024-03-23T04:25:43;12.73;;;7.73;;
20397;SDS011;10358;49.590;11.030;2024-03-23T04:28:09;10.60;;;7.10;;
20397;SDS011;10358;49.590;11.030;2024-03-23T04:30:34;12.57;;;6.73;;
20397;SDS011;10358;49.590;11.030;2024-03-23T04:33:00;14.30;;;6.97;;
20397;SDS011;10358;49.590;11.030;2024-03-23T04:35:26;11.97;;;6.50;;
20397;SDS011;10358;49.590;11.030;2024-03-23T04:37:52;10.90;;;6.77;;
20397;SDS011;10358;49.590;11.030;2024-03-23T04:40:18;11.53;;;6.77;;
20397;SDS011;10358;49.590;11.030;2024-03-23T04:42:44;11.40;;;6.70;;
20397;SDS011;10358;49.590;11.030;2024-03-23T04:45:10;11.97;;;6.73;;
20397;SDS011;10358;49.590;11.030;2024-03-23T04:47:35;12.07;;;7.10;;
20397;SDS011;10358;49.590;11.030;2024-03-23T04:50:02;12.87;;;7.43;;
20397;SDS011;10358;49.590;11.030;2024-03-23T04:52:31;17.20;;;7.27;;
20397;SDS011;10358;49.590;11.030;2024-03-23T04:54:57;11.80;;;6.93;;
20397;SDS011;10358;49.590;11.030;2024-03-23T04:57:22;12.07;;;7.07;;
20397;SDS011;10358;49.590;11.030;2024-03-23T04:59:48;13.87;;;8.17;;
20397;SDS011;10358;49.590;11.030;2024-03-23T05:02:14;16.60;;;7.80;;
20397;SDS011;10358;49.590;11.030;2024-03-23T05:04:40;13.27;;;7.50;;
20397;SDS011;10358;49.590;11.030;2024-03-23T05:07:06;14.53;;;7.90;;
20397;SDS011;10358;49.590;11.030;2024-03-23T05:09:31;14.37;;;7.97;;
20397;SDS011;10358;49.590;11.030;2024-03-23T05:11:58;13.57;;;8.00;;
20397;SDS011;10358;49.590;11.030;2024-03-23T05:14:26;13.67;;;7.60;;
20397;SDS011;10358;49.590;11.030;2024-03-23T05:16:52;15.53;;;8.70;;
20397;SDS011;10358;49.590;11.030;2024-03-23T05:19:18;14.17;;;8.07;;
20397;SDS011;10358;49.590;11.030;2024-03-23T05:21:44;14.80;;;8.00;;
20397;SDS011;10358;49.590;11.030;2024-03-23T05:24:10;13.70;;;7.67;;
20397;SDS011;10358;49.590;11.030;2024-03-23T05:26:37;12.20;;;7.93;;
20397;SDS011;10358;49.590;11.030;2024-03-23T05:29:02;13.93;;;7.80;;
20397;SDS011;10358;49.590;11.030;2024-03-23T05:31:29;14.07;;;7.37;;
20397;SDS011;10358;49.590;11.030;2024-03-23T05:33:56;12.07;;;7.60;;
20397;SDS011;10358;49.590;11.030;2024-03-23T05:36:21;13.77;;;7.87;;
20397;SDS011;10358;49.590;11.030;2024-03-23T05:38:48;12.27;;;7.80;;
20397;SDS011;10358;49.590;11.030;2024-03-23T05:41:14;12.83;;;7.50;;
20397;SDS011;10358;49.590;11.030;2024-03-23T05:43:39;11.07;;;6.90;;
20397;SDS011;10358;49.590;11.030;2024-03-23T05:46:05;13.10;;;6.87;;
20397;SDS011;10358;49.590;11.030;2024-03-23T05:48:31;11.03;;;6.97;;
20397;SDS011;10358;49.590;11.030;2024-03-23T05:50:56;14.63;;;6.93;;
20397;SDS011;10358;49.590;11.030;2024-03-23T05:53:23;10.23;;;6.57;;
20397;SDS011;10358;49.590;11.030;2024-03-23T05:55:49;10.20;;;6.70;;
20397;SDS011;10358;49.590;11.030;2024-03-23T05:58:16;11.10;;;6.90;;
20397;SDS011;10358;49.590;11.030;2024-03-23T06:00:43;10.63;;;6.27;;
20397;SDS011;10358;49.590;11.030;2024-03-23T06:03:08;9.50;;;5.90;;
20397;SDS011;10358;49.590;11.030;2024-03-23T06:05:35;9.47;;;6.27;;
20397;SDS011;10358;49.590;11.030;2024-03-23T06:08:04;12.40;;;6.70;;
20397;SDS011;10358;49.590;11.030;2024-03-23T06:10:30;12.20;;;6.07;;
20397;SDS011;10358;49.590;11.030;2024-03-23T06:12:56;10.23;;;6.03;;
20397;SDS011;10358;49.590;11.030;2024-03-23T06:15:23;9.90;;;5.87;;
20397;SDS011;10358;49.590;11.030;2024-03-23T06:17:49;8.40;;;5.47;;
20397;SDS011;10358;49.590;11.030;2024-03-23T06:20:17;9.80;;;5.27;;
20397;SDS011;10358;49.590;11.030;2024-03-23T06:22:43;8.03;;;5.47;;
20397;SDS011;10358;49.590;11.030;2024-03-23T06:25:08;9.07;;;5.17;;
20397;SDS011;10358;49.590;11.030;2024-03-23T06:27:34;11.63;;;5.93;;
20397;SDS011;10358;49.590;11.030;2024-03-23T06:29:59;10.03;;;5.37;;
20397;SDS011;10358;49.590;11.030;2024-03-23T06:32:25;8.93;;;5.67;;
20397;SDS011;10358;49.590;11.030;2024-03-23T06:34:52;9.70;;;5.43;;
20397;SDS011;10358;49.590;11.030;2024-03-23T06:37:18;8.63;;;5.90;;
20397;SDS011;10358;49.590;11.030;2024-03-23T06:39:45;9.77;;;5.93;;
20397;SDS011;10358;49.590;11.030;2024-03-23T06:42:13;12.47;;;6.50;;
20397;SDS011;10358;49.590;11.030;2024-03-23T06:44:39;9.90;;;6.40;;
20397;SDS011;10358;49.590;11.030;2024-03-23T06:47:05;12.47;;;6.77;;
20397;SDS011;10358;49.590;11.030;2024-03-23T06:49:30;10.67;;;7.27;;
20397;SDS011;10358;49.590;11.030;2024-03-23T06:51:57;15.27;;;7.00;;
20397;SDS011;10358;49.590;11.030;2024-03-23T06:54:24;12.00;;;7.33;;
20397;SDS011;10358;49.590;11.030;2024-03-23T06:56:49;10.80;;;6.63;;
20397;SDS011;10358;49.590;11.030;2024-03-23T06:59:15;10.00;;;6.77;;
20397;SDS011;10358;49.590;11.030;2024-03-23T07:01:40;10.83;;;6.70;;
20397;SDS011;10358;49.590;11.030;2024-03-23T07:04:07;13.97;;;7.23;;
20397;SDS011;10358;49.590;11.030;2024-03-23T07:06:33;12.60;;;6.80;;
20397;SDS011;10358;49.590;11.030;2024-03-23T07:08:59;12.70;;;6.77;;
20397;SDS011;10358;49.590;11.030;2024-03-23T07:11:24;11.13;;;6.07;;
20397;SDS011;10358;49.590;11.030;2024-03-23T07:13:51;11.10;;;6.33;;
20397;SDS011;10358;49.590;11.030;2024-03-23T07:16:17;9.03;;;6.23;;
20397;SDS011;10358;49.590;11.030;2024-03-23T07:18:43;11.47;;;6.60;;
20397;SDS011;10358;49.590;11.030;2024-03-23T07:21:08;10.27;;;5.80;;
20397;SDS011;10358;49.590;11.030;2024-03-23T07:23:34;12.90;;;6.97;;
20397;SDS011;10358;49.590;11.030;2024-03-23T07:26:03;11.77;;;6.03;;
20397;SDS011;10358;49.590;11.030;2024-03-23T07:28:30;12.13;;;6.30;;
20397;SDS011;10358;49.590;11.030;2024-03-23T07:31:06;10.03;;;6.30;;
20397;SDS011;10358;49.590;11.030;2024-03-23T07:33:36;13.23;;;6.17;;
20397;SDS011;10358;49.590;11.030;2024-03-23T07:36:06;12.03;;;6.53;;
20397;SDS011;10358;49.590;11.030;2024-03-23T07:38:31;9.97;;;6.70;;
20397;SDS011;10358;49.590;11.030;2024-03-23T07:41:10;14.07;;;7.47;;
20397;SDS011;10358;49.590;11.030;2024-03-23T07:43:37;12.13;;;7.07;;
20397;SDS011;10358;49.590;11.030;2024-03-23T07:46:03;11.57;;;7.00;;
20397;SDS011;10358;49.590;11.030;2024-03-23T07:48:29;13.80;;;7.83;;
20397;SDS011;10358;49.590;11.030;2024-03-23T07:51:02;14.30;;;7.90;;
20397;SDS011;10358;49.590;11.030;2024-03-23T07:53:28;12.37;;;6.87;;
20397;SDS011;10358;49.590;11.030;2024-03-23T07:55:58;12.23;;;7.20;;
20397;SDS011;10358;49.590;11.030;2024-03-23T07:58:32;7.97;;;5.07;;
20397;SDS011;10358;49.590;11.030;2024-03-23T08:01:08;9.87;;;6.17;;
20397;SDS011;10358;49.590;11.030;2024-03-23T08:03:35;12.00;;;6.90;;
20397;SDS011;10358;49.590;11.030;2024-03-23T08:08:36;12.47;;;5.83;;
20397;SDS011;10358;49.590;11.030;2024-03-23T08:11:02;8.97;;;5.03;;
20397;SDS011;10358;49.590;11.030;2024-03-23T08:13:28;9.23;;;5.53;;
20397;SDS011;10358;49.590;11.030;2024-03-23T08:16:00;8.70;;;3.93;;
20397;SDS011;10358;49.590;11.030;2024-03-23T08:18:28;7.13;;;4.40;;
20397;SDS011;10358;49.590;11.030;2024-03-23T08:23:27;5.40;;;3.30;;
20397;SDS011;10358;49.590;11.030;2024-03-23T08:28:26;4.73;;;2.77;;
20397;SDS011;10358;49.590;11.030;2024-03-23T08:30:55;4.07;;;2.40;;
20397;SDS011;10358;49.590;11.030;2024-03-23T08:33:21;4.10;;;2.90;;
20397;SDS011;10358;49.590;11.030;2024-03-23T08:38:24;2.90;;;2.00;;
20397;SDS011;10358;49.590;11.030;2024-03-23T08:40:56;4.10;;;2.50;;
20397;SDS011;10358;49.590;11.030;2024-03-23T08:43:29;4.33;;;2.50;;
20397;SDS011;10358;49.590;11.030;2024-03-23T08:48:31;2.50;;;1.90;;
20397;SDS011;10358;49.590;11.030;2024-03-23T08:50:59;3.63;;;2.07;;
20397;SDS011;10358;49.590;11.030;2024-03-23T08:53:27;4.60;;;2.20;;
20397;SDS011;10358;49.590;11.030;2024-03-23T08:55:54;3.07;;;1.80;;
20397;SDS011;10358;49.590;11.030;2024-03-23T08:58:20;3.87;;;1.50;;
20397;SDS011;10358;49.590;11.030;2024-03-23T09:00:45;3.10;;;1.40;;
20397;SDS011;10358;49.590;11.030;2024-03-23T09:03:11;2.00;;;1.20;;
20397;SDS011;10358;49.590;11.030;2024-03-23T09:05:40;1.87;;;1.20;;
20397;SDS011;10358;49.590;11.030;2024-03-23T09:08:06;1.47;;;1.00;;
20397;SDS011;10358;49.590;11.030;2024-03-23T09:10:37;0.73;;;0.70;;
20397;SDS011;10358;49.590;11.030;2024-03-23T09:13:03;1.07;;;0.80;;
20397;SDS011;10358;49.590;11.030;2024-03-23T09:15:29;0.90;;;0.70;;
20397;SDS011;10358;49.590;11.030;2024-03-23T09:17:58;2.03;;;0.90;;
20397;SDS011;10358;49.590;11.030;2024-03-23T09:20:24;0.63;;;0.60;;
20397;SDS011;10358;49.590;11.030;2024-03-23T09:22:50;0.60;;;0.60;;
20397;SDS011;10358;49.590;11.030;2024-03-23T09:25:15;0.80;;;0.67;;
20397;SDS011;10358;49.590;11.030;2024-03-23T09:27:41;1.30;;;0.77;;
20397;SDS011;10358;49.590;11.030;2024-03-23T09:30:06;1.63;;;0.53;;
20397;SDS011;10358;49.590;11.030;2024-03-23T09:32:32;0.50;;;0.50;;
20397;SDS011;10358;49.590;11.030;2024-03-23T09:34:58;0.83;;;0.43;;
20397;SDS011;10358;49.590;11.030;2024-03-23T09:37:24;1.20;;;0.40;;
20397;SDS011;10358;49.590;11.030;2024-03-23T09:39:49;0.40;;;0.40;;
20397;SDS011;10358;49.590;11.030;2024-03-23T09:42:15;0.50;;;0.50;;
20397;SDS011;10358;49.590;11.030;2024-03-23T09:44:41;0.50;;;0.50;;
20397;SDS011;10358;49.590;11.030;2024-03-23T09:47:07;0.50;;;0.30;;
20397;SDS011;10358;49.590;11.030;2024-03-23T09:49:33;0.40;;;0.40;;
20397;SDS011;10358;49.590;11.030;2024-03-23T09:52:01;3.10;;;0.50;;
20397;SDS011;10358;49.590;11.030;2024-03-23T09:54:28;0.50;;;0.50;;
20397;SDS011;10358;49.590;11.030;2024-03-23T09:56:55;1.70;;;0.60;;
20397;SDS011;10358;49.590;11.030;2024-03-23T09:59:20;1.37;;;0.50;;
20397;SDS011;10358;49.590;11.030;2024-03-23T10:01:47;1.23;;;0.60;;
20397;SDS011;10358;49.590;11.030;2024-03-23T10:07:13;0.53;;;0.50;;
20397;SDS011;10358;49.590;11.030;2024-03-23T10:09:39;0.67;;;0.60;;
20397;SDS011;10358;49.590;11.030;2024-03-23T10:12:12;1.43;;;0.70;;
20397;SDS011;10358;49.590;11.030;2024-03-23T10:14:41;1.33;;;0.70;;
20397;SDS011;10358;49.590;11.030;2024-03-23T10:17:18;1.30;;;0.80;;
20397;SDS011;10358;49.590;11.030;2024-03-23T10:19:51;3.30;;;1.30;;
20397;SDS011;10358;49.590;11.030;2024-03-23T10:22:18;1.80;;;0.93;;
20397;SDS011;10358;49.590;11.030;2024-03-23T10:24:45;2.30;;;1.20;;
20397;SDS011;10358;49.590;11.030;2024-03-23T10:27:21;2.20;;;1.23;;
20397;SDS011;10358;49.590;11.030;2024-03-23T10:29:47;3.00;;;1.10;;
20397;SDS011;10358;49.590;11.030;2024-03-23T10:32:14;2.83;;;1.30;;
20397;SDS011;10358;49.590;11.030;2024-03-23T10:34:41;2.93;;;1.40;;
20397;SDS011;10358;49.590;11.030;2024-03-23T10:37:07;5.30;;;1.30;;
20397;SDS011;10358;49.590;11.030;2024-03-23T10:42:03;3.37;;;1.57;;
20397;SDS011;10358;49.590;11.030;2024-03-23T10:44:30;4.27;;;1.70;;
20397;SDS011;10358;49.590;11.030;2024-03-23T10:46:58;4.73;;;1.40;;
20397;SDS011;10358;49.590;11.030;2024-03-23T10:49:28;2.37;;;1.30;;
20397;SDS011;10358;49.590;11.030;2024-03-23T10:52:14;2.67;;;1.30;;
20397;SDS011;10358;49.590;11.030;2024-03-23T10:54:39;3.67;;;1.57;;
20397;SDS011;10358;49.590;11.030;2024-03-23T10:57:13;3.10;;;1.20;;
20397;SDS011;10358;49.590;11.030;2024-03-23T10:59:42;4.13;;;1.60;;
20397;SDS011;10358;49.590;11.030;2024-03-23T11:02:17;1.70;;;1.40;;
20397;SDS011;10358;49.590;11.030;2024-03-23T11:04:44;3.03;;;1.40;;
20397;SDS011;10358;49.590;11.030;2024-03-23T11:07:31;3.07;;;1.50;;
20397;SDS011;10358;49.590;11.030;2024-03-23T11:09:59;4.87;;;1.53;;
20397;SDS011;10358;49.590;11.030;2024-03-23T11:12:29;3.13;;;1.77;;
20397;SDS011;10358;49.590;11.030;2024-03-23T11:15:03;5.10;;;1.50;;
20397;SDS011;10358;49.590;11.030;2024-03-23T11:17:36;4.67;;;1.73;;
20397;SDS011;10358;49.590;11.030;2024-03-23T11:20:02;5.13;;;1.73;;
20397;SDS011;10358;49.590;11.030;2024-03-23T11:22:46;4.83;;;1.90;;
20397;SDS011;10358;49.590;11.030;2024-03-23T11:27:49;4.60;;;1.90;;
20397;SDS011;10358;49.590;11.030;2024-03-23T11:32:48;6.93;;;1.90;;
20397;SDS011;10358;49.590;11.030;2024-03-23T11:35:30;3.57;;;2.17;;
20397;SDS011;10358;49.590;11.030;2024-03-23T11:38:13;5.03;;;2.10;;
20397;SDS011;10358;49.590;11.030;2024-03-23T11:40:53;7.30;;;2.10;;
20397;SDS011;10358;49.590;11.030;2024-03-23T11:43:20;4.37;;;1.97;;
20397;SDS011;10358;49.590;11.030;2024-03-23T11:45:47;6.23;;;2.00;;
20397;SDS011;10358;49.590;11.030;2024-03-23T11:48:18;4.50;;;2.00;;
20397;SDS011;10358;49.590;11.030;2024-03-23T11:50:53;3.97;;;1.50;;
20397;SDS011;10358;49.590;11.030;2024-03-23T11:53:24;10.10;;;2.30;;
20397;SDS011;10358;49.590;11.030;2024-03-23T11:55:55;6.00;;;2.50;;
20397;SDS011;10358;49.590;11.030;2024-03-23T11:58:23;4.20;;;2.00;;
20397;SDS011;10358;49.590;11.030;2024-03-23T12:00:57;4.07;;;2.00;;
20397;SDS011;10358;49.590;11.030;2024-03-23T12:03:29;4.93;;;1.97;;
20397;SDS011;10358;49.590;11.030;2024-03-23T12:05:56;7.13;;;1.93;;
20397;SDS011;10358;49.590;11.030;2024-03-23T12:08:23;4.80;;;2.03;;
20397;SDS011;10358;49.590;11.030;2024-03-23T12:11:05;4.30;;;2.10;;
20397;SDS011;10358;49.590;11.030;2024-03-23T12:13:42;6.30;;;2.17;;
20397;SDS011;10358;49.590;11.030;2024-03-23T12:18:35;6.00;;;2.10;;
20397;SDS011;10358;49.590;11.030;2024-03-23T12:21:01;7.13;;;2.40;;
20397;SDS011;10358;49.590;11.030;2024-03-23T12:23:26;6.90;;;2.20;;
20397;SDS011;10358;49.590;11.030;2024-03-23T12:25:53;4.60;;;2.00;;
20397;SDS011;10358;49.590;11.030;2024-03-23T12:28:19;5.57;;;2.00;;
20397;SDS011;10358;49.590;11.030;2024-03-23T12:30:44;6.73;;;2.03;;
20397;SDS011;10358;49.590;11.030;2024-03-23T12:33:10;6.40;;;1.90;;
20397;SDS011;10358;49.590;11.030;2024-03-23T12:35:37;4.63;;;1.80;;
20397;SDS011;10358;49.590;11.030;2024-03-23T12:38:02;5.57;;;1.80;;
20397;SDS011;10358;49.590;11.030;2024-03-23T12:40:29;8.30;;;2.27;;
20397;SDS011;10358;49.590;11.030;2024-03-23T12:42:54;6.33;;;1.87;;
20397;SDS011;10358;49.590;11.030;2024-03-23T12:45:24;4.07;;;1.90;;
20397;SDS011;10358;49.590;11.030;2024-03-23T12:47:49;5.33;;;1.80;;
20397;SDS011;10358;49.590;11.030;2024-03-23T12:50:19;7.47;;;2.03;;
20397;SDS011;10358;49.590;11.030;2024-03-23T12:52:44;7.77;;;2.00;;
20397;SDS011;10358;49.590;11.030;2024-03-23T12:55:10;3.87;;;1.70;;
20397;SDS011;10358;49.590;11.030;2024-03-23T12:57:36;5.63;;;2.20;;
20397;SDS011;10358;49.590;11.030;2024-03-23T13:00:03;4.57;;;2.00;;
20397;SDS011;10358;49.590;11.030;2024-03-23T13:02:29;6.93;;;2.40;;
20397;SDS011;10358;49.590;11.030;2024-03-23T13:04:55;7.60;;;2.17;;
20397;SDS011;10358;49.590;11.030;2024-03-23T13:07:22;8.13;;;2.50;;
20397;SDS011;10358;49.590;11.030;2024-03-23T13:09:51;5.63;;;2.20;;
20397;SDS011;10358;49.590;11.030;2024-03-23T13:12:18;6.33;;;2.37;;
20397;SDS011;10358;49.590;11.030;2024-03-23T13:14:44;4.63;;;1.90;;
20397;SDS011;10358;49.590;11.030;2024-03-23T13:17:10;6.40;;;2.20;;
20397;SDS011;10358;49.590;11.030;2024-03-23T13:19:36;5.47;;;2.27;;
20397;SDS011;10358;49.590;11.030;2024-03-23T13:22:02;5.87;;;1.83;;
20397;SDS011;10358;49.590;11.030;2024-03-23T13:24:28;4.20;;;1.90;;
20397;SDS011;10358;49.590;11.030;2024-03-23T13:26:54;8.60;;;2.50;;
20397;SDS011;10358;49.590;11.030;2024-03-23T13:29:20;8.87;;;2.57;;
20397;SDS011;10358;49.590;11.030;2024-03-23T13:31:47;6.47;;;1.90;;
20397;SDS011;10358;49.590;11.030;2024-03-23T13:34:14;3.63;;;1.60;;
20397;SDS011;10358;49.590;11.030;2024-03-23T13:36:40;5.07;;;1.83;;
20397;SDS011;10358;49.590;11.030;2024-03-23T13:39:06;5.97;;;1.93;;
20397;SDS011;10358;49.590;11.030;2024-03-23T13:41:39;6.17;;;2.07;;
20397;SDS011;10358;49.590;11.030;2024-03-23T13:44:06;6.80;;;1.90;;
20397;SDS011;10358;49.590;11.030;2024-03-23T13:46:32;7.33;;;2.10;;
20397;SDS011;10358;49.590;11.030;2024-03-23T13:48:58;5.67;;;2.10;;
20397;SDS011;10358;49.590;11.030;2024-03-23T13:51:25;5.30;;;1.80;;
20397;SDS011;10358;49.590;11.030;2024-03-23T13:53:54;5.70;;;1.97;;
20397;SDS011;10358;49.590;11.030;2024-03-23T13:56:21;5.17;;;1.90;;
20397;SDS011;10358;49.590;11.030;2024-03-23T13:58:47;5.53;;;2.03;;
20397;SDS011;10358;49.590;11.030;2024-03-23T14:01:13;8.80;;;2.07;;
20397;SDS011;10358;49.590;11.030;2024-03-23T14:03:39;6.43;;;2.40;;
20397;SDS011;10358;49.590;11.030;2024-03-23T14:06:06;6.83;;;2.10;;
20397;SDS011;10358;49.590;11.030;2024-03-23T14:08:32;4.23;;;1.80;;
20397;SDS011;10358;49.590;11.030;2024-03-23T14:11:00;9.97;;;2.53;;
20397;SDS011;10358;49.590;11.030;2024-03-23T14:13:29;7.33;;;2.20;;
20397;SDS011;10358;49.590;11.030;2024-03-23T14:15:55;6.23;;;2.00;;
20397;SDS011;10358;49.590;11.030;2024-03-23T14:18:21;3.93;;;1.70;;
20397;SDS011;10358;49.590;11.030;2024-03-23T14:20:48;7.67;;;2.70;;
20397;SDS011;10358;49.590;11.030;2024-03-23T14:23:16;3.20;;;1.60;;
20397;SDS011;10358;49.590;11.030;2024-03-23T14:25:43;8.00;;;2.37;;
20397;SDS011;10358;49.590;11.030;2024-03-23T14:28:08;6.37;;;2.00;;
20397;SDS011;10358;49.590;11.030;2024-03-23T14:30:39;6.40;;;1.97;;
20397;SDS011;10358;49.590;11.030;2024-03-23T14:33:05;9.53;;;2.53;;
20397;SDS011;10358;49.590;11.030;2024-03-23T14:35:31;6.33;;;2.20;;
20397;SDS011;10358;49.590;11.030;2024-03-23T14:37:58;7.63;;;2.50;;
20397;SDS011;10358;49.590;11.030;2024-03-23T14:40:23;8.27;;;1.90;;
20397;SDS011;10358;49.590;11.030;2024-03-23T14:42:51;5.80;;;2.43;;
20397;SDS011;10358;49.590;11.030;2024-03-23T14:45:17;8.73;;;2.23;;
20397;SDS011;10358;49.590;11.030;2024-03-23T14:47:42;7.43;;;2.10;;
20397;SDS011;10358;49.590;11.030;2024-03-23T14:50:08;6.33;;;2.00;;
20397;SDS011;10358;49.590;11.030;2024-03-23T14:52:39;7.87;;;2.27;;
20397;SDS011;10358;49.590;11.030;2024-03-23T14:55:04;7.37;;;2.40;;
20397;SDS011;10358;49.590;11.030;2024-03-23T14:57:30;4.50;;;2.00;;
20397;SDS011;10358;49.590;11.030;2024-03-23T14:59:56;8.50;;;2.40;;
20397;SDS011;10358;49.590;11.030;2024-03-23T15:02:21;7.63;;;2.37;;
20397;SDS011;10358;49.590;11.030;2024-03-23T15:04:47;7.50;;;2.17;;
20397;SDS011;10358;49.590;11.030;2024-03-23T15:07:12;12.20;;;2.43;;
20397;SDS011;10358;49.590;11.030;2024-03-23T15:09:38;8.13;;;2.73;;
20397;SDS011;10358;49.590;11.030;2024-03-23T15:12:04;6.03;;;2.60;;
20397;SDS011;10358;49.590;11.030;2024-03-23T15:14:30;7.60;;;2.43;;
20397;SDS011;10358;49.590;11.030;2024-03-23T15:16:55;8.13;;;2.20;;
20397;SDS011;10358;49.590;11.030;2024-03-23T15:19:21;9.73;;;3.03;;
20397;SDS011;10358;49.590;11.030;2024-03-23T15:21:46;8.60;;;2.90;;
20397;SDS011;10358;49.590;11.030;2024-03-23T15:24:12;6.50;;;2.87;;
20397;SDS011;10358;49.590;11.030;2024-03-23T15:26:38;6.67;;;2.77;;
20397;SDS011;10358;49.590;11.030;2024-03-23T15:29:08;6.43;;;2.60;;
20397;SDS011;10358;49.590;11.030;2024-03-23T15:31:40;5.30;;;2.63;;
20397;SDS011;10358;49.590;11.030;2024-03-23T15:34:05;5.67;;;2.27;;
20397;SDS011;10358;49.590;11.030;2024-03-23T15:36:36;3.60;;;1.80;;
20397;SDS011;10358;49.590;11.030;2024-03-23T15:39:03;4.90;;;2.20;;
20397;SDS011;10358;49.590;11.030;2024-03-23T15:41:29;3.77;;;1.90;;
20397;SDS011;10358;49.590;11.030;2024-03-23T15:43:56;4.30;;;1.80;;
20397;SDS011;10358;49.590;11.030;2024-03-23T15:46:21;11.13;;;2.17;;